createdAt,value
2019-02-11T00:01:41.416Z,29.07
2019-02-11T00:04:13.075Z,25.53
2019-02-11T00:06:44.787Z,29.27
2019-02-11T00:09:16.499Z,27.70
2019-02-11T00:11:49.397Z,27.60
2019-02-11T00:14:20.864Z,26.67
2019-02-11T00:16:52.449Z,25.83
2019-02-11T00:19:26.887Z,25.67
2019-02-11T00:21:58.398Z,26.63
2019-02-11T00:24:30.134Z,27.00
2019-02-11T00:27:01.616Z,28.20
2019-02-11T00:29:33.187Z,28.60
2019-02-11T00:32:04.795Z,26.90
2019-02-11T00:34:36.330Z,27.13
2019-02-11T00:37:08.102Z,27.90
2019-02-11T00:39:39.559Z,27.13
2019-02-11T00:42:11.098Z,27.07
2019-02-11T00:44:42.733Z,28.37
2019-02-11T00:47:14.388Z,27.57
2019-02-11T00:49:45.967Z,26.83
2019-02-11T00:52:17.582Z,25.20
2019-02-11T00:54:49.093Z,26.43
2019-02-11T00:57:20.684Z,25.67
2019-02-11T00:59:52.253Z,25.70
2019-02-11T01:02:23.971Z,25.20
2019-02-11T01:04:55.520Z,27.10
2019-02-11T01:07:27.043Z,27.10
2019-02-11T01:09:58.741Z,25.57
2019-02-11T01:12:30.244Z,26.27
2019-02-11T01:15:01.903Z,24.50
2019-02-11T01:17:33.983Z,26.70
2019-02-11T01:20:06.191Z,25.43
2019-02-11T01:22:37.779Z,27.10
2019-02-11T01:25:10.331Z,25.37
2019-02-11T01:27:41.907Z,26.20
2019-02-11T01:30:14.488Z,27.30
2019-02-11T01:32:46.008Z,27.57
2019-02-11T01:35:17.676Z,28.10
2019-02-11T01:37:49.322Z,27.63
2019-02-11T01:40:20.855Z,28.83
2019-02-11T01:42:54.437Z,27.33
2019-02-11T01:45:25.668Z,27.77
2019-02-11T01:47:57.213Z,28.17
2019-02-11T01:50:28.732Z,26.60
2019-02-11T01:53:00.325Z,25.90
2019-02-11T01:55:31.831Z,27.70
2019-02-11T01:58:03.412Z,27.90
2019-02-11T02:00:34.913Z,29.17
2019-02-11T02:03:07.562Z,25.73
2019-02-11T02:05:39.185Z,26.27
2019-02-11T02:08:10.751Z,26.23
2019-02-11T02:10:43.603Z,27.37
2019-02-11T02:13:16.700Z,26.30
2019-02-11T02:15:48.234Z,26.90
2019-02-11T02:18:19.812Z,26.93
2019-02-11T02:20:51.380Z,25.47
2019-02-11T02:23:22.959Z,28.53
2019-02-11T02:25:54.468Z,26.67
2019-02-11T02:28:26.169Z,26.57
2019-02-11T02:30:57.694Z,26.47
2019-02-11T02:33:29.308Z,25.07
2019-02-11T02:36:00.888Z,26.57
2019-02-11T02:38:32.447Z,26.10
2019-02-11T02:41:03.973Z,26.33
2019-02-11T02:43:35.476Z,25.47
2019-02-11T02:46:07.686Z,28.60
2019-02-11T02:48:39.170Z,27.77
2019-02-11T02:51:10.699Z,27.87
2019-02-11T02:53:42.259Z,27.83
2019-02-11T02:56:13.881Z,29.53
2019-02-11T02:58:45.341Z,28.03
2019-02-11T03:01:16.882Z,26.67
2019-02-11T03:03:48.490Z,27.93
2019-02-11T03:06:20.190Z,27.00
2019-02-11T03:08:51.717Z,28.07
2019-02-11T03:11:23.393Z,28.50
2019-02-11T03:14:03.821Z,28.47
2019-02-11T03:16:28.343Z,27.77
2019-02-11T03:18:59.927Z,29.10
2019-02-11T03:21:31.550Z,28.17
2019-02-11T03:24:03.251Z,26.90
2019-02-11T03:26:34.856Z,28.10
2019-02-11T03:29:06.616Z,28.80
2019-02-11T03:31:38.202Z,28.47
2019-02-11T03:34:09.766Z,29.17
2019-02-11T03:36:41.479Z,28.83
2019-02-11T03:39:12.992Z,29.60
2019-02-11T03:41:44.664Z,29.10
2019-02-11T03:44:16.339Z,31.30
2019-02-11T03:46:47.928Z,28.63
2019-02-11T03:49:19.643Z,31.20
2019-02-11T03:51:51.338Z,32.57
2019-02-11T03:54:22.846Z,30.03
2019-02-11T03:56:54.575Z,29.07
2019-02-11T03:59:26.208Z,29.83
2019-02-11T04:01:57.887Z,30.33
2019-02-11T04:04:29.510Z,28.97
2019-02-11T04:07:01.155Z,31.63
2019-02-11T04:09:32.745Z,32.13
2019-02-11T04:12:04.354Z,32.20
2019-02-11T04:14:35.995Z,33.03
2019-02-11T04:17:07.569Z,31.37
2019-02-11T04:19:39.057Z,30.50
2019-02-11T04:22:11.263Z,31.17
2019-02-11T04:24:42.818Z,32.47
2019-02-11T04:27:14.440Z,31.97
2019-02-11T04:29:46.098Z,35.20
2019-02-11T04:32:17.578Z,32.80
2019-02-11T04:34:49.130Z,35.23
2019-02-11T04:37:20.577Z,31.97
2019-02-11T04:39:52.288Z,34.90
2019-02-11T04:42:24.920Z,35.10
2019-02-11T04:44:56.457Z,32.40
2019-02-11T04:47:27.940Z,30.63
2019-02-11T04:49:59.478Z,36.50
2019-02-11T04:52:30.979Z,38.03
2019-02-11T04:55:02.598Z,32.83
2019-02-11T04:57:34.198Z,34.23
2019-02-11T05:00:06.707Z,33.23
2019-02-11T05:02:41.251Z,33.57
2019-02-11T05:05:13.202Z,33.57
2019-02-11T05:07:44.852Z,32.20
2019-02-11T05:10:16.563Z,34.73
2019-02-11T05:12:48.090Z,34.00
2019-02-11T05:15:19.624Z,35.13
2019-02-11T05:17:51.204Z,35.10
2019-02-11T05:20:22.834Z,36.60
2019-02-11T05:22:54.435Z,34.77
2019-02-11T05:25:25.943Z,38.90
2019-02-11T05:27:57.482Z,36.57
2019-02-11T05:30:29.126Z,44.63
2019-02-11T05:33:00.926Z,59.00
2019-02-11T05:35:32.584Z,67.20
2019-02-11T05:38:04.202Z,48.27
2019-02-11T05:40:35.913Z,47.93
2019-02-11T05:43:09.843Z,44.40
2019-02-11T05:45:41.399Z,67.77
2019-02-11T05:48:12.960Z,55.70
2019-02-11T05:50:44.453Z,48.83
2019-02-11T05:53:15.882Z,61.73
2019-02-11T05:55:47.582Z,66.93
2019-02-11T05:58:19.156Z,68.10
2019-02-11T06:00:50.745Z,51.03
2019-02-11T06:03:22.249Z,41.87
2019-02-11T06:05:53.898Z,50.43
2019-02-11T06:08:25.358Z,51.60
2019-02-11T06:10:56.949Z,45.10
2019-02-11T06:13:28.499Z,37.17
2019-02-11T06:16:02.881Z,46.30
2019-02-11T06:18:34.370Z,47.17
2019-02-11T06:21:06.082Z,36.73
2019-02-11T06:23:37.622Z,38.00
2019-02-11T06:26:09.180Z,44.77
2019-02-11T06:28:42.441Z,40.00
2019-02-11T06:31:13.974Z,39.27
2019-02-11T06:33:46.834Z,47.87
2019-02-11T06:36:18.475Z,49.07
2019-02-11T06:38:50.114Z,46.07
2019-02-11T06:41:21.639Z,40.50
2019-02-11T06:43:53.197Z,40.37
2019-02-11T06:46:24.799Z,42.73
2019-02-11T06:48:56.341Z,34.73
2019-02-11T06:51:28.050Z,41.07
2019-02-11T06:53:59.827Z,38.63
2019-02-11T06:56:31.408Z,33.87
2019-02-11T06:59:02.945Z,35.83
2019-02-11T07:01:34.593Z,39.83
2019-02-11T07:04:08.443Z,41.70
2019-02-11T07:06:40.030Z,42.60
2019-02-11T07:09:11.561Z,42.23
2019-02-11T07:11:43.110Z,44.87
2019-02-11T07:14:14.503Z,41.43
2019-02-11T07:16:46.078Z,39.13
2019-02-11T07:19:17.647Z,40.20
2019-02-11T07:21:49.190Z,36.10
2019-02-11T07:24:20.760Z,39.47
2019-02-11T07:26:52.280Z,36.17
2019-02-11T07:29:23.888Z,37.20
2019-02-11T07:31:55.462Z,34.13
2019-02-11T07:34:26.995Z,37.17
2019-02-11T07:36:58.457Z,39.10
2019-02-11T07:39:30.087Z,36.43
2019-02-11T07:42:18.837Z,37.90
2019-02-11T07:45:02.471Z,34.00
2019-02-11T07:47:36.971Z,32.37
2019-02-11T07:50:08.729Z,31.47
2019-02-11T07:52:41.633Z,34.43
2019-02-11T07:55:13.287Z,35.77
2019-02-11T07:57:44.778Z,32.27
2019-02-11T08:00:16.504Z,34.43
2019-02-11T08:02:49.844Z,34.43
2019-02-11T08:05:21.695Z,33.77
2019-02-11T08:07:53.291Z,33.83
2019-02-11T08:10:24.838Z,32.57
2019-02-11T08:12:56.367Z,34.20
2019-02-11T08:15:28.157Z,31.27
2019-02-11T08:18:06.691Z,30.37
2019-02-11T08:20:38.229Z,36.07
2019-02-11T08:23:13.594Z,30.60
2019-02-11T08:25:44.262Z,33.80
2019-02-11T08:28:19.496Z,27.47
2019-02-11T08:30:49.103Z,27.53
2019-02-11T08:33:20.719Z,31.17
2019-02-11T08:35:52.381Z,27.00
2019-02-11T08:38:24.109Z,28.80
2019-02-11T08:40:55.741Z,31.30
2019-02-11T08:43:27.412Z,32.90
2019-02-11T08:45:59.101Z,30.40
2019-02-11T08:48:30.693Z,27.90
2019-02-11T08:51:02.262Z,28.60
2019-02-11T08:53:35.233Z,30.10
2019-02-11T08:56:06.840Z,29.37
2019-02-11T08:58:38.437Z,30.17
2019-02-11T09:01:13.611Z,27.77
2019-02-11T09:03:45.255Z,29.40
2019-02-11T09:06:18.062Z,28.23
2019-02-11T09:08:52.682Z,27.03
2019-02-11T09:11:24.285Z,29.50
2019-02-11T09:13:55.908Z,26.57
2019-02-11T09:16:27.565Z,26.70
2019-02-11T09:18:59.146Z,28.70
2019-02-11T09:21:30.754Z,29.20
2019-02-11T09:24:02.391Z,34.33
2019-02-11T09:26:33.851Z,26.90
2019-02-11T09:29:05.617Z,24.50
2019-02-11T09:31:37.170Z,19.83
2019-02-11T09:34:08.810Z,24.73
2019-02-11T09:36:40.370Z,26.07
2019-02-11T09:39:11.957Z,24.93
2019-02-11T09:41:43.765Z,23.67
2019-02-11T09:44:15.314Z,20.20
2019-02-11T09:46:46.828Z,22.67
2019-02-11T09:49:18.534Z,22.57
2019-02-11T09:51:50.728Z,26.10
2019-02-11T09:54:22.324Z,23.17
2019-02-11T09:56:53.815Z,23.90
2019-02-11T09:59:25.399Z,23.43
2019-02-11T10:01:58.093Z,23.97
2019-02-11T10:04:29.684Z,22.63
2019-02-11T10:07:01.315Z,26.53
2019-02-11T10:09:33.020Z,29.97
2019-02-11T10:12:04.761Z,23.80
2019-02-11T10:14:39.945Z,23.73
2019-02-11T10:17:11.455Z,22.27
2019-02-11T10:19:43.117Z,24.27
2019-02-11T10:22:14.619Z,25.27
2019-02-11T10:24:46.317Z,22.53
2019-02-11T10:27:17.857Z,22.33
2019-02-11T10:29:49.460Z,23.67
2019-02-11T10:32:21.100Z,26.90
2019-02-11T10:34:53.837Z,25.07
2019-02-11T10:37:25.539Z,25.27
2019-02-11T10:39:57.149Z,21.93
2019-02-11T10:42:28.878Z,21.83
2019-02-11T10:45:00.605Z,21.80
2019-02-11T10:47:32.335Z,22.60
2019-02-11T10:50:04.215Z,21.00
2019-02-11T10:52:35.957Z,18.83
2019-02-11T10:55:09.153Z,19.00
2019-02-11T10:57:41.436Z,17.53
2019-02-11T11:00:15.778Z,17.03
2019-02-11T11:02:47.389Z,18.20
2019-02-11T11:05:19.100Z,19.63
2019-02-11T11:07:50.938Z,19.97
2019-02-11T11:10:28.370Z,19.67
2019-02-11T11:13:01.136Z,19.00
2019-02-11T11:15:32.909Z,22.30
2019-02-11T11:18:04.815Z,21.13
2019-02-11T11:20:38.139Z,21.67
2019-02-11T11:23:09.805Z,20.57
2019-02-11T11:25:41.352Z,22.90
2019-02-11T11:28:13.029Z,26.43
2019-02-11T11:30:44.772Z,17.93
2019-02-11T11:33:28.692Z,18.73
2019-02-11T11:36:00.547Z,19.73
2019-02-11T11:38:32.213Z,18.73
2019-02-11T11:41:04.242Z,18.97
2019-02-11T11:43:35.982Z,18.43
2019-02-11T11:46:07.615Z,19.93
2019-02-11T11:48:39.357Z,17.97
2019-02-11T11:51:10.981Z,20.63
2019-02-11T11:53:42.564Z,20.10
2019-02-11T11:56:14.085Z,18.13
2019-02-11T11:58:45.817Z,19.90
2019-02-11T12:01:19.387Z,19.80
2019-02-11T12:03:51.118Z,19.20
2019-02-11T12:06:25.911Z,24.57
2019-02-11T12:08:59.369Z,24.40
2019-02-11T12:11:31.996Z,18.70
2019-02-11T12:14:07.507Z,19.10
2019-02-11T12:16:56.210Z,24.30
2019-02-11T12:19:17.143Z,22.80
2019-02-11T12:21:50.246Z,21.23
2019-02-11T12:24:24.732Z,21.20
2019-02-11T12:26:57.293Z,23.23
2019-02-11T12:29:29.768Z,19.73
2019-02-11T12:32:01.784Z,15.27
2019-02-11T12:34:34.353Z,16.10
2019-02-11T12:37:09.491Z,21.43
2019-02-11T12:39:43.997Z,17.47
2019-02-11T12:42:17.702Z,15.33
2019-02-11T12:44:53.421Z,21.00
2019-02-11T12:47:28.479Z,20.73
2019-02-11T12:50:01.037Z,22.43
2019-02-11T12:52:32.678Z,26.23
2019-02-11T12:55:07.629Z,20.97
2019-02-11T12:57:37.717Z,18.60
2019-02-11T13:00:16.248Z,17.70
2019-02-11T13:02:46.011Z,17.10
2019-02-11T13:05:22.077Z,17.27
2019-02-11T13:07:53.647Z,15.53
2019-02-11T13:10:25.228Z,18.27
2019-02-11T13:12:56.913Z,16.37
2019-02-11T13:15:56.775Z,15.43
2019-02-11T13:18:04.964Z,14.20
2019-02-11T13:20:37.726Z,14.43
2019-02-11T13:23:09.436Z,14.43
2019-02-11T13:25:41.310Z,15.80
2019-02-11T13:28:13.019Z,15.43
2019-02-11T13:30:44.685Z,17.20
2019-02-11T13:33:16.385Z,14.80
2019-02-11T13:35:48.050Z,16.73
2019-02-11T13:38:20.444Z,19.43
2019-02-11T13:40:51.934Z,14.50
2019-02-11T13:43:23.475Z,15.07
2019-02-11T13:45:54.997Z,14.90
2019-02-11T13:48:26.741Z,17.37
2019-02-11T13:51:00.074Z,16.73
2019-02-11T13:53:31.846Z,17.57
2019-02-11T13:56:06.885Z,17.93
2019-02-11T13:58:38.467Z,18.87
2019-02-11T14:01:12.336Z,18.77
2019-02-11T14:03:43.996Z,20.17
2019-02-11T14:06:17.311Z,19.37
2019-02-11T14:08:50.037Z,18.67
2019-02-11T14:11:23.058Z,19.13
2019-02-11T14:14:02.649Z,19.90
2019-02-11T14:16:28.151Z,18.67
2019-02-11T14:19:00.042Z,20.90
2019-02-11T14:21:31.712Z,21.17
2019-02-11T14:24:03.427Z,19.30
2019-02-11T14:26:35.161Z,21.37
2019-02-11T14:29:06.855Z,20.47
2019-02-11T14:31:38.550Z,19.13
2019-02-11T14:34:11.086Z,22.33
2019-02-11T14:36:43.979Z,23.40
2019-02-11T14:39:16.919Z,33.33
2019-02-11T14:41:48.737Z,25.83
2019-02-11T14:44:20.621Z,27.27
2019-02-11T14:46:52.359Z,29.07
2019-02-11T14:49:26.912Z,28.63
2019-02-11T14:51:58.639Z,29.80
2019-02-11T14:54:30.409Z,33.27
2019-02-11T14:57:02.205Z,35.00
2019-02-11T14:59:33.719Z,34.73
2019-02-11T15:02:05.399Z,36.10
2019-02-11T15:04:36.924Z,33.67
2019-02-11T15:07:08.452Z,32.50
2019-02-11T15:09:40.046Z,30.30
2019-02-11T15:12:11.545Z,33.73
2019-02-11T15:14:43.024Z,34.93
2019-02-11T15:17:14.617Z,33.80
2019-02-11T15:19:46.147Z,32.83
2019-02-11T15:22:17.667Z,33.10
2019-02-11T15:24:49.374Z,34.83
2019-02-11T15:27:20.938Z,33.70
2019-02-11T15:29:52.414Z,33.63
2019-02-11T15:32:26.953Z,34.07
2019-02-11T15:34:58.629Z,34.30
2019-02-11T15:37:31.768Z,31.57
2019-02-11T15:40:03.357Z,31.53
2019-02-11T15:42:34.969Z,29.70
2019-02-11T15:45:07.897Z,33.33
2019-02-11T15:47:39.437Z,32.17
2019-02-11T15:50:12.480Z,33.87
2019-02-11T15:52:45.129Z,33.03
2019-02-11T15:55:18.421Z,32.57
2019-02-11T15:57:50.005Z,34.07
2019-02-11T16:00:22.456Z,30.30
2019-02-11T16:02:54.138Z,30.63
2019-02-11T16:05:25.740Z,30.70
2019-02-11T16:07:58.860Z,31.00
2019-02-11T16:10:30.469Z,32.13
2019-02-11T16:13:02.779Z,32.13
2019-02-11T16:15:34.519Z,32.53
2019-02-11T16:18:07.267Z,35.37
2019-02-11T16:20:38.806Z,37.43
2019-02-11T16:23:10.559Z,35.70
2019-02-11T16:25:42.110Z,33.70
2019-02-11T16:28:15.092Z,37.03
2019-02-11T16:30:47.275Z,33.93
2019-02-11T16:33:18.987Z,33.37
2019-02-11T16:35:50.706Z,36.83
2019-02-11T16:38:22.441Z,33.83
2019-02-11T16:40:57.014Z,31.60
2019-02-11T16:43:28.625Z,30.63
2019-02-11T16:46:00.340Z,30.23
2019-02-11T16:48:32.035Z,29.93
2019-02-11T16:51:03.687Z,29.27
2019-02-11T16:53:35.216Z,29.30
2019-02-11T16:56:06.848Z,28.33
2019-02-11T16:58:38.465Z,28.23
2019-02-11T17:01:11.323Z,28.90
2019-02-11T17:03:42.971Z,28.60
2019-02-11T17:06:14.563Z,29.40
2019-02-11T17:08:46.158Z,28.17
2019-02-11T17:11:17.602Z,28.03
2019-02-11T17:13:49.222Z,29.83
2019-02-11T17:16:21.008Z,31.13
2019-02-11T17:18:52.628Z,29.43
2019-02-11T17:21:43.027Z,29.63
2019-02-11T17:24:14.601Z,31.00
2019-02-11T17:26:46.075Z,30.53
2019-02-11T17:29:17.712Z,30.23
2019-02-11T17:31:49.223Z,29.70
2019-02-11T17:34:20.833Z,27.23
2019-02-11T17:36:54.944Z,28.50
2019-02-11T17:39:26.649Z,24.67
2019-02-11T17:41:58.248Z,27.63
2019-02-11T17:44:31.465Z,27.33
2019-02-11T17:47:02.968Z,27.07
2019-02-11T17:49:34.626Z,27.93
2019-02-11T17:52:07.484Z,27.60
2019-02-11T17:54:39.137Z,26.47
2019-02-11T17:57:10.659Z,28.87
2019-02-11T17:59:42.527Z,23.63
2019-02-11T18:02:15.988Z,28.10
2019-02-11T18:04:47.536Z,29.80
2019-02-11T18:07:19.279Z,26.17
2019-02-11T18:09:50.780Z,29.40
2019-02-11T18:12:24.504Z,27.97
2019-02-11T18:14:55.895Z,28.00
2019-02-11T18:17:27.636Z,30.43
2019-02-11T18:19:59.329Z,23.83
2019-02-11T18:22:33.166Z,23.70
2019-02-11T18:25:04.683Z,21.97
2019-02-11T18:27:36.238Z,24.00
2019-02-11T18:30:08.399Z,27.23
2019-02-11T18:32:40.039Z,27.27
2019-02-11T18:35:14.134Z,24.50
2019-02-11T18:37:45.967Z,26.30
2019-02-11T18:40:17.878Z,24.97
2019-02-11T18:42:51.961Z,29.60
2019-02-11T18:45:25.558Z,26.93
2019-02-11T18:47:57.952Z,24.30
2019-02-11T18:50:29.501Z,24.47
2019-02-11T18:53:01.202Z,19.83
2019-02-11T18:55:38.755Z,24.47
2019-02-11T18:58:10.318Z,22.53
2019-02-11T19:00:41.937Z,21.13
2019-02-11T19:03:14.809Z,22.80
2019-02-11T19:05:46.391Z,24.90
2019-02-11T19:08:17.963Z,23.80
2019-02-11T19:10:49.573Z,30.73
2019-02-11T19:13:21.161Z,24.60
2019-02-11T19:15:52.812Z,27.83
2019-02-11T19:18:24.434Z,22.23
2019-02-11T19:20:57.663Z,24.50
2019-02-11T19:23:29.268Z,21.40
2019-02-11T19:26:00.995Z,19.33
2019-02-11T19:28:32.758Z,19.30
2019-02-11T19:31:04.350Z,18.30
2019-02-11T19:33:36.035Z,21.17
2019-02-11T19:36:07.666Z,20.03
2019-02-11T19:38:39.199Z,21.23
2019-02-11T19:41:10.828Z,17.20
2019-02-11T19:43:42.455Z,20.30
2019-02-11T19:46:13.906Z,16.37
2019-02-11T19:48:46.615Z,18.57
2019-02-11T19:51:18.340Z,15.10
2019-02-11T19:53:49.910Z,14.90
2019-02-11T19:56:21.559Z,19.33
2019-02-11T19:58:53.180Z,16.40
2019-02-11T20:01:24.876Z,17.20
2019-02-11T20:03:56.691Z,15.63
2019-02-11T20:06:28.206Z,14.80
2019-02-11T20:08:59.965Z,15.43
2019-02-11T20:11:31.585Z,22.67
2019-02-11T20:14:04.796Z,19.43
2019-02-11T20:16:36.273Z,16.73
2019-02-11T20:19:07.809Z,19.00
2019-02-11T20:21:39.298Z,19.70
2019-02-11T20:24:10.990Z,18.23
2019-02-11T20:26:44.216Z,16.73
2019-02-11T20:29:15.931Z,14.07
2019-02-11T20:31:47.590Z,17.43
2019-02-11T20:34:19.212Z,16.73
2019-02-11T20:36:50.761Z,15.80
2019-02-11T20:39:25.506Z,17.23
2019-02-11T20:42:01.014Z,14.40
2019-02-11T20:44:33.238Z,15.33
2019-02-11T20:47:10.192Z,15.23
2019-02-11T20:49:41.860Z,14.50
2019-02-11T20:52:14.721Z,13.57
2019-02-11T20:54:46.250Z,14.43
2019-02-11T20:57:17.868Z,14.27
2019-02-11T20:59:52.440Z,15.03
2019-02-11T21:02:24.093Z,13.43
2019-02-11T21:04:55.731Z,11.87
2019-02-11T21:07:28.875Z,11.93
2019-02-11T21:10:00.614Z,10.60
2019-02-11T21:12:32.241Z,14.30
2019-02-11T21:15:03.754Z,18.53
2019-02-11T21:17:35.330Z,12.03
2019-02-11T21:20:08.498Z,15.87
2019-02-11T21:22:41.688Z,15.67
2019-02-11T21:25:13.389Z,16.67
2019-02-11T21:27:44.982Z,13.83
2019-02-11T21:30:16.681Z,14.30
2019-02-11T21:32:48.301Z,14.10
2019-02-11T21:35:19.836Z,15.13
2019-02-11T21:37:51.454Z,13.33
2019-02-11T21:40:26.019Z,15.53
2019-02-11T21:42:57.750Z,14.97
2019-02-11T21:45:29.281Z,21.13
2019-02-11T21:48:00.886Z,19.63
2019-02-11T21:50:34.158Z,21.10
2019-02-11T21:53:05.731Z,16.93
2019-02-11T21:55:37.389Z,16.23
2019-02-11T21:58:08.890Z,16.10
2019-02-11T22:00:40.451Z,16.07
2019-02-11T22:03:12.588Z,16.47
2019-02-11T22:05:44.576Z,13.20
2019-02-11T22:08:16.141Z,14.70
2019-02-11T22:10:47.756Z,16.43
2019-02-11T22:13:19.393Z,14.50
2019-02-11T22:15:51.011Z,13.77
2019-02-11T22:18:22.669Z,15.73
2019-02-11T22:20:54.290Z,17.13
2019-02-11T22:23:25.905Z,15.53
2019-02-11T22:25:57.538Z,15.80
2019-02-11T22:28:29.222Z,13.97
2019-02-11T22:31:00.891Z,14.37
2019-02-11T22:33:32.509Z,14.80
2019-02-11T22:36:04.231Z,14.90
2019-02-11T22:38:35.778Z,14.87
2019-02-11T22:41:08.405Z,15.13
2019-02-11T22:43:39.939Z,14.80
2019-02-11T22:46:11.528Z,14.03
2019-02-11T22:48:43.311Z,13.30
2019-02-11T22:51:14.953Z,15.63
2019-02-11T22:53:47.051Z,14.13
2019-02-11T22:56:20.353Z,17.17
2019-02-11T22:58:51.936Z,13.43
2019-02-11T23:01:23.766Z,12.23
2019-02-11T23:03:56.075Z,10.43
2019-02-11T23:06:27.615Z,11.17
2019-02-11T23:08:59.356Z,10.57
2019-02-11T23:11:30.846Z,10.93
2019-02-11T23:14:02.413Z,11.43
2019-02-11T23:16:33.938Z,10.50
2019-02-11T23:19:06.046Z,9.77
2019-02-11T23:21:40.496Z,9.93
2019-02-11T23:24:18.233Z,8.20
2019-02-11T23:26:49.953Z,8.57
2019-02-11T23:29:21.501Z,9.33
2019-02-11T23:31:53.112Z,8.53
2019-02-11T23:34:24.675Z,9.30
2019-02-11T23:36:56.359Z,10.10
2019-02-11T23:39:28.948Z,9.57
2019-02-11T23:42:00.577Z,9.43
2019-02-11T23:44:32.054Z,9.27
2019-02-11T23:47:03.744Z,9.77
2019-02-11T23:49:35.274Z,10.60
2019-02-11T23:52:06.916Z,9.23
2019-02-11T23:54:39.634Z,10.07
2019-02-11T23:57:11.195Z,9.33
2019-02-11T23:59:42.767Z,9.23
